createdAt,value
2022-08-17T00:01:31.408Z,99.90
2022-08-17T00:04:11.789Z,99.90
2022-08-17T00:06:38.720Z,99.90
2022-08-17T00:09:05.717Z,99.90
2022-08-17T00:11:38.449Z,99.90
2022-08-17T00:14:09.250Z,99.90
2022-08-17T00:16:55.383Z,99.90
2022-08-17T00:19:25.501Z,99.90
2022-08-17T00:22:31.260Z,99.90
2022-08-17T00:24:43.224Z,99.90
2022-08-17T00:27:09.861Z,99.90
2022-08-17T00:29:36.491Z,99.90
2022-08-17T00:33:13.602Z,99.90
2022-08-17T00:34:50.206Z,99.90
2022-08-17T00:37:16.864Z,99.90
2022-08-17T00:39:43.921Z,99.90
2022-08-17T00:42:15.150Z,99.90
2022-08-17T00:44:41.798Z,99.90
2022-08-17T00:47:08.519Z,99.90
2022-08-17T00:49:35.175Z,99.90
2022-08-17T00:52:12.061Z,99.90
2022-08-17T00:54:43.194Z,99.90
2022-08-17T00:57:19.795Z,99.90
2022-08-17T01:00:03.033Z,99.90
2022-08-17T01:02:40.454Z,99.90
2022-08-17T01:05:23.747Z,99.90
2022-08-17T01:07:53.615Z,99.90
2022-08-17T01:11:00.677Z,99.90
2022-08-17T01:13:14.843Z,99.90
2022-08-17T01:15:52.808Z,99.90
2022-08-17T01:18:19.946Z,99.90
2022-08-17T01:20:51.919Z,99.90
2022-08-17T01:23:21.328Z,99.90
2022-08-17T01:25:56.832Z,99.90
2022-08-17T01:28:53.227Z,99.90
2022-08-17T01:31:13.258Z,99.90
2022-08-17T01:33:40.036Z,99.90
2022-08-17T01:36:07.558Z,99.90
2022-08-17T01:38:35.885Z,99.90
2022-08-17T01:41:08.061Z,99.90
2022-08-17T01:43:51.975Z,99.90
2022-08-17T01:46:26.399Z,99.90
2022-08-17T01:48:54.164Z,99.90
2022-08-17T01:51:21.221Z,99.90
2022-08-17T01:53:52.285Z,99.90
2022-08-17T01:56:22.832Z,99.90
2022-08-17T01:58:50.088Z,99.90
2022-08-17T02:01:20.319Z,99.90
2022-08-17T02:03:59.000Z,99.90
2022-08-17T02:06:31.562Z,99.90
2022-08-17T02:09:16.841Z,99.90
2022-08-17T02:11:44.643Z,99.90
2022-08-17T02:14:13.226Z,99.90
2022-08-17T02:16:40.654Z,99.90
2022-08-17T02:19:10.864Z,99.90
2022-08-17T02:21:39.606Z,99.90
2022-08-17T02:24:10.796Z,99.90
2022-08-17T02:26:37.573Z,99.90
2022-08-17T02:29:04.386Z,99.90
2022-08-17T02:31:31.252Z,99.90
2022-08-17T02:34:03.917Z,99.90
2022-08-17T02:36:33.871Z,99.90
2022-08-17T02:39:06.782Z,99.90
2022-08-17T02:41:33.941Z,99.90
2022-08-17T02:44:01.290Z,99.90
2022-08-17T02:46:28.464Z,99.90
2022-08-17T02:48:55.659Z,99.90
2022-08-17T02:51:22.685Z,99.90
2022-08-17T02:53:49.404Z,99.90
2022-08-17T02:56:16.367Z,99.90
2022-08-17T02:58:43.175Z,99.90
2022-08-17T03:01:10.721Z,99.90
2022-08-17T03:03:38.618Z,99.90
2022-08-17T03:06:07.404Z,99.90
2022-08-17T03:08:34.795Z,99.90
2022-08-17T03:11:01.602Z,99.90
2022-08-17T03:13:28.333Z,99.90
2022-08-17T03:15:55.164Z,99.90
2022-08-17T03:18:25.725Z,99.90
2022-08-17T03:20:58.248Z,99.90
2022-08-17T03:23:27.344Z,99.90
2022-08-17T03:25:54.808Z,99.90
2022-08-17T03:28:22.420Z,99.90
2022-08-17T03:30:50.975Z,99.90
2022-08-17T03:33:17.775Z,99.90
2022-08-17T03:35:45.265Z,99.90
2022-08-17T03:38:12.774Z,99.90
2022-08-17T03:40:56.569Z,99.90
2022-08-17T03:43:25.537Z,99.90
2022-08-17T03:46:27.273Z,99.90
2022-08-17T03:49:14.501Z,99.90
2022-08-17T03:51:59.757Z,99.90
2022-08-17T03:54:45.165Z,99.90
2022-08-17T03:57:12.756Z,99.90
2022-08-17T03:59:41.330Z,99.90
2022-08-17T04:02:38.124Z,99.90
2022-08-17T04:05:05.244Z,99.90
2022-08-17T04:07:32.051Z,99.90
2022-08-17T04:09:59.377Z,99.90
2022-08-17T04:12:30.653Z,99.90
2022-08-17T04:14:57.718Z,99.90
2022-08-17T04:17:29.065Z,99.90
2022-08-17T04:19:56.611Z,99.90
2022-08-17T04:22:33.234Z,99.90
2022-08-17T04:25:15.859Z,99.90
2022-08-17T04:27:42.607Z,99.90
2022-08-17T04:30:09.855Z,99.90
2022-08-17T04:33:06.143Z,99.90
2022-08-17T04:35:39.151Z,99.90
2022-08-17T04:38:07.280Z,99.90
2022-08-17T04:40:52.682Z,99.90
2022-08-17T04:43:23.329Z,99.90
2022-08-17T04:45:56.869Z,99.90
2022-08-17T04:48:29.609Z,99.90
2022-08-17T04:51:05.933Z,99.90
2022-08-17T04:53:32.666Z,99.90
2022-08-17T04:55:59.340Z,99.90
2022-08-17T04:58:26.070Z,99.90
2022-08-17T05:00:52.950Z,99.90
2022-08-17T05:03:19.797Z,99.90
2022-08-17T05:05:49.784Z,99.90
2022-08-17T05:08:18.989Z,99.90
2022-08-17T05:10:46.701Z,99.90
2022-08-17T05:13:19.139Z,99.90
2022-08-17T05:15:47.849Z,99.90
2022-08-17T05:18:15.904Z,99.90
2022-08-17T05:20:42.987Z,99.90
2022-08-17T05:23:12.761Z,99.90
2022-08-17T05:25:47.363Z,99.90
2022-08-17T05:28:15.055Z,99.90
2022-08-17T05:30:43.815Z,99.90
2022-08-17T05:33:23.679Z,99.90
2022-08-17T05:35:52.896Z,99.90
2022-08-17T05:38:22.324Z,99.90
2022-08-17T05:40:49.135Z,99.90
2022-08-17T05:43:20.382Z,99.90
2022-08-17T05:46:14.808Z,99.90
2022-08-17T05:48:58.882Z,99.90
2022-08-17T05:51:50.212Z,99.90
2022-08-17T05:54:44.504Z,99.90
2022-08-17T05:57:23.344Z,99.90
2022-08-17T06:00:00.539Z,99.90
2022-08-17T06:02:49.383Z,99.90
2022-08-17T06:05:34.325Z,99.90
2022-08-17T06:08:29.116Z,99.90
2022-08-17T06:11:43.866Z,99.90
2022-08-17T06:14:23.076Z,99.90
2022-08-17T06:16:56.840Z,99.90
2022-08-17T06:19:48.515Z,99.90
2022-08-17T06:22:18.463Z,99.90
2022-08-17T06:24:56.667Z,99.90
2022-08-17T06:27:40.531Z,99.90
2022-08-17T06:30:12.366Z,99.90
2022-08-17T06:32:44.386Z,99.90
2022-08-17T06:35:13.893Z,99.90
2022-08-17T06:38:01.283Z,99.90
2022-08-17T06:40:45.537Z,99.90
2022-08-17T06:43:47.447Z,99.90
2022-08-17T06:46:40.474Z,99.90
2022-08-17T06:49:30.135Z,99.90
2022-08-17T06:52:42.445Z,99.90
2022-08-17T06:55:18.116Z,99.90
2022-08-17T06:57:52.490Z,99.90
2022-08-17T07:00:23.081Z,99.90
2022-08-17T07:03:06.850Z,99.90
2022-08-17T07:05:46.331Z,99.90
2022-08-17T07:08:24.325Z,99.90
2022-08-17T07:10:57.692Z,99.90
2022-08-17T07:13:44.504Z,99.90
2022-08-17T07:16:30.762Z,99.90
2022-08-17T07:18:59.919Z,99.90
2022-08-17T07:21:44.052Z,99.90
2022-08-17T07:24:29.737Z,99.90
2022-08-17T07:27:10.438Z,99.90
2022-08-17T07:29:53.607Z,99.90
2022-08-17T07:32:31.715Z,99.90
2022-08-17T07:35:05.034Z,99.90
2022-08-17T07:37:33.283Z,99.90
2022-08-17T07:40:16.218Z,99.90
2022-08-17T07:43:05.866Z,99.90
2022-08-17T07:45:53.221Z,99.90
2022-08-17T07:48:23.114Z,99.90
2022-08-17T07:50:50.694Z,99.90
2022-08-17T07:53:23.078Z,99.90
2022-08-17T07:55:51.566Z,99.90
2022-08-17T07:58:21.788Z,99.90
2022-08-17T08:01:08.015Z,99.90
2022-08-17T08:03:41.974Z,99.90
2022-08-17T08:06:20.863Z,99.90
2022-08-17T08:08:54.686Z,99.90
2022-08-17T08:11:34.823Z,99.90
2022-08-17T08:14:38.528Z,99.90
2022-08-17T08:17:07.470Z,99.90
2022-08-17T08:19:36.291Z,99.90
2022-08-17T08:22:11.928Z,99.90
2022-08-17T08:25:02.689Z,99.90
2022-08-17T08:27:35.595Z,99.90
2022-08-17T08:30:21.444Z,99.90
2022-08-17T08:33:04.056Z,99.90
2022-08-17T08:35:30.895Z,99.90
2022-08-17T08:38:32.872Z,99.90
2022-08-17T08:41:02.553Z,99.90
2022-08-17T08:43:55.922Z,99.90
2022-08-17T08:46:30.556Z,99.90
2022-08-17T08:49:12.026Z,99.90
2022-08-17T08:51:59.904Z,99.90
2022-08-17T08:54:48.019Z,99.90
2022-08-17T08:57:34.851Z,99.90
2022-08-17T09:00:04.725Z,99.90
2022-08-17T09:02:46.596Z,99.90
2022-08-17T09:05:31.823Z,99.90
2022-08-17T09:08:01.188Z,99.90
2022-08-17T09:10:46.854Z,99.90
2022-08-17T09:13:34.300Z,99.90
2022-08-17T09:16:15.684Z,99.90
2022-08-17T09:19:01.184Z,99.90
2022-08-17T09:21:43.055Z,99.90
2022-08-17T09:24:24.998Z,99.90
2022-08-17T09:26:59.426Z,99.90
2022-08-17T09:29:34.291Z,99.90
2022-08-17T09:32:36.371Z,99.90
2022-08-17T09:35:14.648Z,99.90
2022-08-17T09:38:00.080Z,99.90
2022-08-17T09:40:52.760Z,99.90
2022-08-17T09:43:27.525Z,99.90
2022-08-17T09:46:17.612Z,99.90
2022-08-17T09:49:03.464Z,99.90
2022-08-17T09:51:36.054Z,99.90
2022-08-17T09:54:34.941Z,99.90
2022-08-17T09:57:11.832Z,99.90
2022-08-17T09:59:59.178Z,99.90
2022-08-17T10:02:42.636Z,99.30
2022-08-17T10:05:51.142Z,98.80
2022-08-17T10:08:32.285Z,98.60
2022-08-17T10:11:14.880Z,99.00
2022-08-17T10:13:41.610Z,98.60
2022-08-17T10:16:37.278Z,96.80
2022-08-17T10:19:13.885Z,96.60
2022-08-17T10:22:32.462Z,96.20
2022-08-17T10:25:22.537Z,96.50
2022-08-17T10:28:06.029Z,95.90
2022-08-17T10:30:37.954Z,94.90
2022-08-17T10:33:14.377Z,95.20
2022-08-17T10:36:01.185Z,93.30
2022-08-17T10:38:37.131Z,94.20
2022-08-17T10:41:31.600Z,93.50
2022-08-17T10:44:39.557Z,92.50
2022-08-17T10:47:12.642Z,91.40
2022-08-17T10:49:53.465Z,90.10
2022-08-17T10:52:20.109Z,88.80
2022-08-17T10:55:05.879Z,90.60
2022-08-17T10:57:34.701Z,88.20
2022-08-17T11:00:12.827Z,90.10
2022-08-17T11:05:33.010Z,87.30
2022-08-17T11:08:13.225Z,80.00
2022-08-17T11:10:57.384Z,78.20
2022-08-17T11:13:37.691Z,80.00
2022-08-17T11:16:26.098Z,80.70
2022-08-17T11:19:26.375Z,76.20
2022-08-17T11:22:34.299Z,75.10
2022-08-17T11:25:30.756Z,74.10
2022-08-17T11:28:14.228Z,74.30
2022-08-17T11:30:40.837Z,73.70
2022-08-17T11:33:28.989Z,73.60
2022-08-17T11:36:22.208Z,73.80
2022-08-17T11:39:00.850Z,73.70
2022-08-17T11:42:08.688Z,71.60
2022-08-17T11:44:58.711Z,73.70
2022-08-17T11:48:26.673Z,68.50
2022-08-17T11:51:28.249Z,69.10
2022-08-17T11:54:14.648Z,71.20
2022-08-17T11:56:44.298Z,68.40
2022-08-17T11:59:32.781Z,68.70
2022-08-17T12:02:03.179Z,68.90
2022-08-17T12:04:35.295Z,64.20
2022-08-17T12:07:17.942Z,63.70
2022-08-17T12:09:49.035Z,64.20
2022-08-17T12:12:22.224Z,62.10
2022-08-17T12:15:10.203Z,61.00
2022-08-17T12:17:39.469Z,60.80
2022-08-17T12:20:21.375Z,62.30
2022-08-17T12:23:09.817Z,62.00
2022-08-17T12:25:39.293Z,61.50
2022-08-17T12:28:24.141Z,58.80
2022-08-17T12:30:52.330Z,57.90
2022-08-17T12:33:25.520Z,58.00
2022-08-17T12:36:02.954Z,57.10
2022-08-17T12:38:34.378Z,57.40
2022-08-17T12:41:25.155Z,56.80
2022-08-17T12:44:03.459Z,56.80
2022-08-17T12:46:45.195Z,56.00
2022-08-17T12:49:30.726Z,54.20
2022-08-17T12:52:10.893Z,55.10
2022-08-17T12:59:47.249Z,54.60
2022-08-17T13:04:49.661Z,50.60
2022-08-17T13:07:28.868Z,48.80
2022-08-17T13:09:55.642Z,50.40
2022-08-17T13:12:31.148Z,50.60
2022-08-17T13:17:29.067Z,51.10
2022-08-17T13:19:56.276Z,46.20
2022-08-17T13:22:25.200Z,46.70
2022-08-17T13:24:56.138Z,45.80
2022-08-17T13:27:26.058Z,45.00
2022-08-17T13:29:59.775Z,45.80
2022-08-17T13:32:46.457Z,44.60
2022-08-17T13:35:58.375Z,45.00
2022-08-17T13:38:47.841Z,43.60
2022-08-17T13:41:34.407Z,46.40
2022-08-17T13:44:01.629Z,45.00
2022-08-17T13:46:32.974Z,45.70
2022-08-17T13:49:04.191Z,43.80
2022-08-17T13:51:35.718Z,44.70
2022-08-17T14:12:08.809Z,45.30
2022-08-17T14:14:36.248Z,44.90
2022-08-17T14:17:04.346Z,43.90
2022-08-17T14:19:31.145Z,46.20
2022-08-17T14:21:59.730Z,43.70
2022-08-17T15:24:24.297Z,43.10
2022-08-17T15:29:18.325Z,33.30
2022-08-17T15:31:45.123Z,31.20
2022-08-17T15:36:41.340Z,28.80
2022-08-17T15:39:19.216Z,28.20
2022-08-17T15:41:47.313Z,28.20
2022-08-17T16:11:56.105Z,28.10
2022-08-17T16:14:25.846Z,32.10
2022-08-17T16:16:59.169Z,32.90
2022-08-17T16:19:25.817Z,33.70
2022-08-17T16:21:52.478Z,34.00
2022-08-17T16:24:19.148Z,35.10
2022-08-17T16:26:45.804Z,36.00
2022-08-17T16:29:12.509Z,37.40
2022-08-17T16:31:39.517Z,37.10
2022-08-17T16:34:16.813Z,38.60
2022-08-17T16:36:54.602Z,38.60
2022-08-17T16:39:25.078Z,39.80
2022-08-17T16:41:51.733Z,40.00
2022-08-17T16:44:20.446Z,40.20
2022-08-17T16:46:48.379Z,40.50
2022-08-17T16:49:36.156Z,40.90
2022-08-17T16:52:07.089Z,41.90
2022-08-17T16:54:35.214Z,41.80
2022-08-17T16:57:04.403Z,43.00
2022-08-17T16:59:41.119Z,43.30
2022-08-17T17:02:16.098Z,43.30
2022-08-17T17:05:02.913Z,45.10
2022-08-17T17:07:57.186Z,43.70
2022-08-17T17:10:45.659Z,43.90
2022-08-17T17:13:29.118Z,44.90
2022-08-17T17:16:05.841Z,46.20
2022-08-17T17:18:41.168Z,46.60
2022-08-17T17:21:13.854Z,47.30
2022-08-17T17:23:49.260Z,48.00
2022-08-17T17:26:49.977Z,49.10
2022-08-17T17:29:18.254Z,49.30
2022-08-17T17:32:17.439Z,49.20
2022-08-17T17:34:50.864Z,49.80
2022-08-17T17:37:20.771Z,50.50
2022-08-17T17:39:56.965Z,51.00
2022-08-17T17:42:31.141Z,52.10
2022-08-17T17:45:23.669Z,51.80
2022-08-17T17:47:50.869Z,52.10
2022-08-17T17:50:19.985Z,53.00
2022-08-17T17:53:07.446Z,53.50
2022-08-17T17:56:01.818Z,54.50
2022-08-17T17:58:47.743Z,55.40
2022-08-17T18:01:35.939Z,56.40
2022-08-17T18:04:20.608Z,56.90
2022-08-17T18:07:11.119Z,57.40
2022-08-17T18:10:19.831Z,58.80
2022-08-17T18:13:10.231Z,60.50
2022-08-17T18:15:50.971Z,62.30
2022-08-17T18:18:17.562Z,63.10
2022-08-17T18:20:53.997Z,63.80
2022-08-17T18:23:27.964Z,64.90
2022-08-17T18:25:58.494Z,65.90
2022-08-17T18:28:43.167Z,67.40
2022-08-17T18:31:19.269Z,69.10
2022-08-17T18:33:48.752Z,71.00
2022-08-17T18:36:36.167Z,73.40
2022-08-17T18:39:14.272Z,76.00
2022-08-17T18:41:43.675Z,80.90
2022-08-17T18:44:25.498Z,84.40
2022-08-17T18:47:15.937Z,84.00
2022-08-17T18:49:45.474Z,91.80
2022-08-17T18:52:16.364Z,92.80
2022-08-17T18:55:21.293Z,92.10
2022-08-17T18:58:09.310Z,91.50
2022-08-17T19:00:40.330Z,92.30
2022-08-17T19:03:16.497Z,92.70
2022-08-17T19:05:46.647Z,92.50
2022-08-17T19:08:28.703Z,92.90
2022-08-17T19:11:07.032Z,93.60
2022-08-17T19:13:47.468Z,94.40
2022-08-17T19:16:21.391Z,94.70
2022-08-17T19:19:00.237Z,95.10
2022-08-17T19:21:38.557Z,95.60
2022-08-17T19:24:23.812Z,98.10
2022-08-17T19:26:57.951Z,98.50
2022-08-17T19:29:40.845Z,99.40
2022-08-17T19:32:09.672Z,99.70
2022-08-17T19:34:38.047Z,99.00
2022-08-17T19:37:38.363Z,99.50
2022-08-17T19:40:52.492Z,99.00
2022-08-17T19:43:57.014Z,99.80
2022-08-17T19:46:35.677Z,99.80
2022-08-17T19:49:11.433Z,99.80
2022-08-17T19:51:52.565Z,98.60
2022-08-17T19:54:35.382Z,98.50
2022-08-17T19:57:27.244Z,98.90
2022-08-17T20:00:20.105Z,97.90
2022-08-17T20:02:55.234Z,98.20
2022-08-17T20:06:00.890Z,98.10
2022-08-17T20:08:58.070Z,97.20
2022-08-17T20:11:32.217Z,97.20
2022-08-17T20:14:04.426Z,97.50
2022-08-17T20:16:33.348Z,97.20
2022-08-17T20:19:09.577Z,97.20
2022-08-17T20:21:52.207Z,97.30
2022-08-17T20:24:32.512Z,97.70
2022-08-17T20:27:12.228Z,98.80
2022-08-17T20:29:59.405Z,99.80
2022-08-17T20:32:29.658Z,99.90
2022-08-17T20:35:08.352Z,99.90
2022-08-17T20:37:38.116Z,99.90
2022-08-17T20:40:05.509Z,99.90
2022-08-17T20:42:33.817Z,99.50
2022-08-17T20:45:20.556Z,98.90
2022-08-17T20:48:33.273Z,98.50
2022-08-17T20:50:57.350Z,97.80
2022-08-17T20:54:03.233Z,97.80
2022-08-17T20:56:45.024Z,97.60
2022-08-17T20:59:21.056Z,97.40
2022-08-17T21:02:06.644Z,97.30
2022-08-17T21:05:00.108Z,96.70
2022-08-17T21:07:42.613Z,96.90
2022-08-17T21:10:25.742Z,96.40
2022-08-17T21:12:56.209Z,96.20
2022-08-17T21:15:57.240Z,97.30
2022-08-17T21:18:52.608Z,95.90
2022-08-17T21:21:28.388Z,95.80
2022-08-17T21:24:19.908Z,96.00
2022-08-17T21:26:50.517Z,96.50
2022-08-17T21:29:30.831Z,95.40
2022-08-17T21:32:00.545Z,95.10
2022-08-17T21:34:32.888Z,95.00
2022-08-17T21:37:29.664Z,95.00
2022-08-17T21:40:18.571Z,94.30
2022-08-17T21:42:53.853Z,93.90
2022-08-17T21:45:34.995Z,93.90
2022-08-17T21:48:24.550Z,93.60
2022-08-17T21:51:10.443Z,93.90
2022-08-17T21:53:59.083Z,93.70
2022-08-17T21:56:28.434Z,93.60
2022-08-17T21:59:25.089Z,94.00
2022-08-17T22:02:00.538Z,93.20
2022-08-17T22:04:36.036Z,91.80
2022-08-17T22:07:09.631Z,91.60
2022-08-17T22:09:46.323Z,91.60
2022-08-17T22:12:16.630Z,92.40
2022-08-17T22:14:56.814Z,95.60
2022-08-17T22:17:25.297Z,99.90
2022-08-17T22:19:56.590Z,99.90
2022-08-17T22:23:11.203Z,99.90
2022-08-17T22:25:56.103Z,99.90
2022-08-17T22:28:41.476Z,99.90
2022-08-17T22:31:10.603Z,99.90
2022-08-17T22:33:41.417Z,99.90
2022-08-17T22:36:09.331Z,99.90
2022-08-17T22:38:37.726Z,99.90
2022-08-17T22:41:16.896Z,99.90
2022-08-17T22:43:44.891Z,99.90
2022-08-17T22:46:12.447Z,99.90
2022-08-17T22:48:48.587Z,99.90
2022-08-17T22:51:21.290Z,99.90
2022-08-17T22:54:19.496Z,99.90
2022-08-17T22:57:19.057Z,99.90
2022-08-17T22:59:45.819Z,99.90
2022-08-17T23:02:14.703Z,99.90
2022-08-17T23:04:45.311Z,99.90
2022-08-17T23:07:12.080Z,99.90
2022-08-17T23:09:39.294Z,99.90
2022-08-17T23:12:11.528Z,99.90
2022-08-17T23:14:41.171Z,99.90
2022-08-17T23:17:08.101Z,99.90
2022-08-17T23:19:35.228Z,99.90
2022-08-17T23:22:04.331Z,99.90
2022-08-17T23:24:35.537Z,99.90
2022-08-17T23:27:05.489Z,99.90
2022-08-17T23:29:32.237Z,99.90
2022-08-17T23:32:01.143Z,99.90
2022-08-17T23:34:28.409Z,99.90
2022-08-17T23:36:55.537Z,99.90
2022-08-17T23:39:24.355Z,99.90
2022-08-17T23:41:54.632Z,99.90
2022-08-17T23:44:23.392Z,99.90
2022-08-17T23:46:51.314Z,99.90
2022-08-17T23:49:19.053Z,99.90
2022-08-17T23:51:47.303Z,99.90
2022-08-17T23:54:35.633Z,99.90
2022-08-17T23:57:04.613Z,99.90
2022-08-17T23:59:33.748Z,99.90
